Accueil
METAR-TAF:

METAR-TAF

Aéroports :

Aéroport de Newquay Cornouailles

Newquay Cornwall, Angleterre

latitude: 50-26N, longitude: 005-00W, altitude: 119 m

Observation

Le bulletin a été fait il y a 15 minutes, à 14:50 UTC
Vent 4 kt de nord, variant entre nord-ouest et nord-est
Température 8°C
Humidité 57%
Pression 1038 hPa
Visibilité 10 km ou plus
Ciel couvert à une hauteur de 2300 ft

METAR: EGHQ 221450Z 36004KT 320V040 9999 OVC023 08/00 Q1038

Heure: 15:05 (15:05 UTC)

Prévision

Le bulletin a été fait il y a 1 heure et 10 minutes, à 13:55 UTC
Prévision valable du 22 à 15 UTC au 22 à 24 UTC
Vent 6 kt de nord
Visibilité 10 km ou plus
Nuages fragmentés à une hauteur de 2000 ft

TAF: EGHQ 221355Z 2215/2224 01006KT 9999 BKN020

Observations et prévisions météorologiques de plus de 4000 aéroports (messages METAR et TAF).

Les stations disponibles sont représentées par des disques jaunes et rouges sur la carte.

Passer la souris dessus pour voir le nom de la station.

Cliquer dessus pour voir les observations et prévisions météorologiques.

Pour changer de carte: cliquez sur les boutons verts avec une croix noire pour zoomer, sur le bouton vert avec un tiret pour effectuer un zoom arrière, ou sur les flèches vertes pour les cartes adjacentes.


METAR-TAF: